Time;durP1;ratioP1;P1;durP2;ratioP2;P2;SDS_P1;SDS_P2;PMS_P1;PMS_P2;Temp;Humidity;BMP_temperature;BMP_pressure;BME280_temperature;BME280_humidity;BME280_pressure;Samples;Min_cycle;Max_cycle;Signal;HPM_P1;HPM_P2
2021/12/27 00:00:18;;;;;;;56.00;28.50;;;;;;;4.85;100.00;61318.47;5072594;28;20438;-74
2021/12/27 00:02:49;;;;;;;46.37;26.13;;;;;;;4.85;100.00;61317.97;5071850;28;20449;-74
2021/12/27 00:05:18;;;;;;;50.43;25.23;;;;;;;4.98;100.00;61332.34;5072663;28;20454;-74
2021/12/27 00:07:50;;;;;;;53.03;26.13;;;;;;;3.37;100.00;61161.53;5072827;28;20434;-73
2021/12/27 00:10:20;;;;;;;49.30;24.53;;;;;;;5.17;100.00;61351.50;5071523;28;20482;-75
2021/12/27 00:12:49;;;;;;;43.70;22.97;;;;;;;4.92;100.00;61330.47;5072520;28;20437;-72
2021/12/27 00:15:18;;;;;;;44.07;22.33;;;;;;;5.21;100.00;61358.84;5072233;28;20472;-74
2021/12/27 00:17:46;;;;;;;38.97;21.07;;;;;;;5.33;100.00;61373.59;5072107;28;20469;-74
2021/12/27 00:20:15;;;;;;;36.57;19.77;;;;;;;5.28;100.00;61365.75;5072314;28;20503;-75
2021/12/27 00:22:49;;;;;;;38.73;18.37;;;;;;;4.18;100.00;61250.22;5071044;28;20512;-74
2021/12/27 00:25:17;;;;;;;39.13;20.70;;;;;;;5.01;100.00;61335.00;5072742;28;20515;-74
2021/12/27 00:27:48;;;;;;;37.83;19.57;;;;;;;4.11;100.00;61240.25;5072252;28;20442;-74
2021/12/27 00:30:18;;;;;;;29.80;17.43;;;;;;;5.05;100.00;61344.31;5072464;28;20478;-73
2021/12/27 00:32:46;;;;;;;34.00;16.73;;;;;;;5.23;100.00;61360.97;5072349;28;20435;-75
2021/12/27 00:35:14;;;;;;;30.17;17.33;;;;;;;5.13;100.00;61347.78;5072077;28;20450;-72
2021/12/27 00:37:48;;;;;;;29.37;17.03;;;;;;;5.25;100.00;61360.56;5072101;28;20482;-73
2021/12/27 00:40:16;;;;;;;33.27;17.47;;;;;;;5.23;100.00;61363.50;5072001;28;20466;-73
2021/12/27 00:42:49;;;;;;;35.40;17.43;;;;;;;5.16;100.00;61350.97;5072105;28;20443;-74
2021/12/27 00:45:20;;;;;;;31.63;16.70;;;;;;;5.24;100.00;61359.50;5072264;28;20442;-73
2021/12/27 00:47:51;;;;;;;35.07;19.17;;;;;;;5.19;100.00;61354.19;5072087;28;20463;-72
2021/12/27 00:50:18;;;;;;;32.93;17.27;;;;;;;5.05;100.00;61344.31;5071990;28;20470;-75
2021/12/27 00:52:48;;;;;;;33.47;18.20;;;;;;;4.89;100.00;61322.22;5071310;28;20458;-74
2021/12/27 00:55:16;;;;;;;33.37;18.57;;;;;;;4.85;100.00;61317.97;5072018;28;20521;-73
2021/12/27 00:57:45;;;;;;;33.07;18.53;;;;;;;4.70;100.00;61304.50;5071136;28;20518;-73
2021/12/27 01:00:17;;;;;;;34.43;18.87;;;;;;;4.77;100.00;61309.44;5071353;28;20443;-75
2021/12/27 01:02:48;;;;;;;36.70;18.23;;;;;;;4.80;100.00;61313.16;5072248;28;20500;-74
2021/12/27 01:05:16;;;;;;;33.10;19.23;;;;;;;3.61;100.00;61187.06;5072586;28;20435;-74
2021/12/27 01:07:44;;;;;;;31.47;17.80;;;;;;;3.80;100.00;61212.31;5071670;28;20472;-72
2021/12/27 01:10:38;;;;;;;34.10;16.60;;;;;;;4.82;100.00;61314.75;5071501;28;20572;-75
2021/12/27 01:13:19;;;;;;;31.70;16.90;;;;;;;4.14;100.00;61248.50;5071844;28;20451;-75
2021/12/27 01:16:14;;;;;;;27.83;15.73;;;;;;;4.99;100.00;61332.88;5071649;28;20450;-73
2021/12/27 01:18:47;;;;;;;31.87;16.10;;;;;;;5.11;100.00;61350.72;5071726;28;20504;-73
2021/12/27 01:21:21;;;;;;;28.77;15.63;;;;;;;4.93;100.00;61332.06;5072267;28;20504;-73
2021/12/27 01:23:48;;;;;;;31.10;16.63;;;;;;;5.15;100.00;61350.44;5071618;28;20453;-73
2021/12/27 01:26:17;;;;;;;34.73;16.77;;;;;;;5.09;100.00;61346.06;5072425;28;20457;-75
2021/12/27 01:28:45;;;;;;;33.17;16.77;;;;;;;5.05;100.00;61339.25;5072527;28;20852;-72
2021/12/27 01:31:14;;;;;;;35.30;18.17;;;;;;;5.19;100.00;61358.69;5073063;28;20478;-72
2021/12/27 01:33:46;;;;;;;35.40;18.83;;;;;;;5.10;100.00;61347.09;5072061;28;20446;-73
2021/12/27 01:36:32;;;;;;;45.50;21.87;;;;;;;4.92;100.00;61325.41;5071278;28;20474;-75
2021/12/27 01:38:58;;;;;;;38.20;19.73;;;;;;;4.99;100.00;61335.41;5071040;28;20461;-75
2021/12/27 01:41:27;;;;;;;42.20;19.47;;;;;;;5.13;100.00;61352.84;5070922;28;20466;-75
2021/12/27 01:43:55;;;;;;;30.97;17.70;;;;;;;5.13;100.00;61352.84;5071614;28;20441;-73
2021/12/27 01:46:29;;;;;;;28.40;13.90;;;;;;;5.19;100.00;61353.63;5071802;28;20553;-72
2021/12/27 01:49:00;;;;;;;22.83;12.77;;;;;;;5.31;100.00;61366.44;5071785;28;20434;-74
2021/12/27 01:51:31;;;;;;;28.40;14.10;;;;;;;4.01;100.00;61234.66;5071356;28;20569;-73
2021/12/27 01:54:00;;;;;;;24.70;12.83;;;;;;;4.25;100.00;61257.66;5071375;28;20871;-73
2021/12/27 01:56:28;;;;;;;31.00;15.00;;;;;;;5.54;100.00;61391.47;5071167;28;20519;-74
2021/12/27 01:58:57;;;;;;;36.10;15.77;;;;;;;5.58;100.00;61400.78;5071279;28;20506;-73
2021/12/27 02:01:25;;;;;;;26.80;15.03;;;;;;;5.67;100.00;61407.84;5071471;28;20553;-72
2021/12/27 02:03:54;;;;;;;25.27;14.33;;;;;;;5.06;100.00;61340.84;5071234;28;20435;-73
2021/12/27 02:06:21;;;;;;;30.37;15.00;;;;;;;5.57;100.00;61394.13;5070031;28;20469;-74
2021/12/27 02:08:48;;;;;;;24.90;11.53;;;;;;;5.50;100.00;61389.72;5070970;28;20443;-72
2021/12/27 02:11:19;;;;;;;32.27;12.60;;;;;;;5.48;100.00;61385.06;5074480;28;20857;-74
2021/12/27 02:13:48;;;;;;;30.70;12.57;;;;;;;5.76;100.00;61417.44;5074598;28;20441;-73
2021/12/27 02:16:19;;;;;;;28.50;12.27;;;;;;;5.74;100.00;61414.75;5074574;28;20504;-73
2021/12/27 02:18:48;;;;;;;21.50;11.27;;;;;;;5.84;100.00;61428.50;5074373;28;20523;-72
2021/12/27 02:21:18;;;;;;;19.83;10.93;;;;;;;5.86;100.00;61430.09;5074541;28;20430;-73
2021/12/27 02:23:48;;;;;;;34.33;13.87;;;;;;;5.93;100.00;61438.13;5075054;28;20869;-73
2021/12/27 02:26:17;;;;;;;21.00;12.00;;;;;;;4.70;100.00;61307.56;5074787;28;20842;-73
2021/12/27 02:28:46;;;;;;;32.27;12.93;;;;;;;5.84;100.00;61425.97;5074530;28;20442;-74
2021/12/27 02:31:14;;;;;;;23.40;11.57;;;;;;;4.43;100.00;61273.25;5074167;28;21069;-75
2021/12/27 02:33:43;;;;;;;20.53;11.47;;;;;;;5.86;100.00;61428.13;5074314;28;20442;-74
2021/12/27 02:36:12;;;;;;;25.40;12.57;;;;;;;5.82;100.00;61426.34;5074026;28;20458;-73
2021/12/27 02:38:45;;;;;;;20.17;11.70;;;;;;;4.88;100.00;61323.66;5074112;28;21012;-73
2021/12/27 02:41:13;;;;;;;23.53;12.47;;;;;;;5.83;100.00;61421.84;5074057;28;21054;-74
2021/12/27 02:43:42;;;;;;;21.03;12.03;;;;;;;5.97;100.00;61439.84;5073074;28;20446;-72
2021/12/27 02:46:14;;;;;;;20.07;12.03;;;;;;;6.05;100.00;61447.84;5074111;28;20474;-72
2021/12/27 02:48:45;;;;;;;29.40;14.30;;;;;;;6.01;100.00;61445.56;5074798;28;20434;-72
2021/12/27 02:51:13;;;;;;;23.80;13.13;;;;;;;4.93;100.00;61326.47;5074248;28;20535;-73
2021/12/27 02:53:44;;;;;;;24.00;13.30;;;;;;;5.82;100.00;61426.34;5074153;28;20442;-73
2021/12/27 02:56:12;;;;;;;24.27;13.73;;;;;;;5.85;100.00;61427.06;5073969;28;20477;-73
2021/12/27 02:58:40;;;;;;;24.57;13.87;;;;;;;5.93;100.00;61433.06;5073642;28;20465;-74
2021/12/27 03:01:12;;;;;;;26.33;14.33;;;;;;;5.92;100.00;61433.97;5074558;28;20434;-73
2021/12/27 03:03:40;;;;;;;30.10;15.67;;;;;;;5.77;100.00;61420.50;5074023;28;20465;-73
2021/12/27 03:06:09;;;;;;;29.37;15.73;;;;;;;5.68;100.00;61411.44;5073602;28;20508;-74
2021/12/27 03:08:37;;;;;;;30.97;15.47;;;;;;;5.83;100.00;61426.91;5072564;28;20435;-73
2021/12/27 03:11:09;;;;;;;26.97;15.40;;;;;;;5.89;100.00;61428.78;5073539;28;21088;-72
2021/12/27 03:13:39;;;;;;;22.13;13.17;;;;;;;5.78;100.00;61417.03;5073554;28;20811;-74
2021/12/27 03:16:09;;;;;;;24.93;14.57;;;;;;;5.77;100.00;61418.50;5073383;28;20450;-73
2021/12/27 03:18:38;;;;;;;27.43;14.70;;;;;;;5.81;100.00;61420.25;5073744;28;20438;-74
2021/12/27 03:21:08;;;;;;;30.37;15.53;;;;;;;5.67;100.00;61405.31;5071801;28;20840;-73
2021/12/27 03:23:37;;;;;;;26.80;14.53;;;;;;;5.74;100.00;61412.78;5073571;28;20431;-73
2021/12/27 03:26:05;;;;;;;27.87;15.03;;;;;;;5.81;100.00;61420.25;5073715;28;20513;-74
2021/12/27 03:28:34;;;;;;;23.10;13.00;;;;;;;5.91;100.00;61430.94;5073421;28;20854;-74
2021/12/27 03:31:02;;;;;;;24.27;13.37;;;;;;;5.97;100.00;61439.84;5073048;28;20478;-74
2021/12/27 03:33:31;;;;;;;23.70;14.30;;;;;;;5.91;100.00;61430.94;5073478;28;20447;-73
2021/12/27 03:36:02;;;;;;;28.13;14.67;;;;;;;5.94;100.00;61434.13;5074294;28;20470;-74
2021/12/27 03:38:32;;;;;;;27.13;15.00;;;;;;;6.03;100.00;61443.19;5072975;28;20959;-72
2021/12/27 03:41:03;;;;;;;24.63;14.30;;;;;;;6.10;100.00;61450.13;5073444;28;20474;-72
2021/12/27 03:43:31;;;;;;;27.13;14.53;;;;;;;6.09;100.00;61449.03;5072908;28;20458;-74
2021/12/27 03:45:58;;;;;;;26.83;14.83;;;;;;;6.13;100.00;61455.84;5072385;28;20438;-75
2021/12/27 03:48:28;;;;;;;22.63;13.23;;;;;;;6.08;100.00;61448.00;5072834;28;20492;-74
2021/12/27 03:50:56;;;;;;;25.37;13.93;;;;;;;5.45;100.00;61384.41;5072686;28;20984;-73
2021/12/27 03:53:23;;;;;;;22.53;13.97;;;;;;;4.75;100.00;61309.84;5073294;28;20496;-74
2021/12/27 03:55:50;;;;;;;22.53;14.87;;;;;;;5.81;100.00;61422.78;5073669;28;20847;-74
2021/12/27 03:58:27;;;;;;;21.70;11.97;;;;;;;5.75;100.00;61416.38;5072887;28;20434;-73
2021/12/27 04:01:15;;;;;;;19.63;11.70;;;;;;;5.70;100.00;61407.97;5072777;28;20446;-73
2021/12/27 04:03:44;;;;;;;21.67;11.83;;;;;;;5.23;100.00;61357.91;5072708;28;20445;-74
2021/12/27 04:06:13;;;;;;;17.77;11.03;;;;;;;5.81;100.00;61420.25;5072437;28;20513;-73
2021/12/27 04:08:42;;;;;;;28.13;16.73;;;;;;;5.44;100.00;61383.31;5072679;28;20431;-73
2021/12/27 04:11:09;;;;;;;26.27;15.87;;;;;;;4.40;100.00;61272.56;5072346;28;20559;-74
2021/12/27 04:13:36;;;;;;;23.27;14.00;;;;;;;4.29;100.00;61264.44;5072353;28;20446;-74
2021/12/27 04:16:05;;;;;;;20.60;12.53;;;;;;;5.28;100.00;61368.81;5072074;28;20520;-74
2021/12/27 04:18:33;;;;;;;21.47;12.53;;;;;;;5.64;100.00;61401.56;5072617;28;20466;-74
2021/12/27 04:21:01;;;;;;;23.90;12.37;;;;;;;5.19;100.00;61359.22;5072083;28;20527;-73
2021/12/27 04:23:28;;;;;;;24.27;12.00;;;;;;;5.70;100.00;61411.03;5071095;28;20446;-73
2021/12/27 04:25:55;;;;;;;27.17;13.63;;;;;;;5.51;100.00;61388.28;5072363;28;20508;-74
2021/12/27 04:28:24;;;;;;;24.63;14.57;;;;;;;5.53;100.00;61389.88;5072038;28;20963;-74
2021/12/27 04:30:51;;;;;;;20.43;12.57;;;;;;;5.53;100.00;61394.91;5072032;28;21040;-75
2021/12/27 04:33:23;;;;;;;20.87;12.10;;;;;;;5.60;100.00;61400.38;5071631;28;20435;-75
2021/12/27 04:35:50;;;;;;;23.27;11.93;;;;;;;5.66;100.00;61408.75;5072031;28;20474;-73
2021/12/27 04:38:18;;;;;;;20.10;12.40;;;;;;;5.68;100.00;61406.38;5072249;28;20450;-72
2021/12/27 04:40:50;;;;;;;20.40;12.03;;;;;;;5.62;100.00;61402.50;5071774;28;20470;-73
2021/12/27 04:43:21;;;;;;;20.73;11.27;;;;;;;5.60;100.00;61397.84;5071220;28;20454;-72
2021/12/27 04:45:50;;;;;;;17.03;10.13;;;;;;;5.68;100.00;61408.91;5072170;28;20435;-72
2021/12/27 04:48:23;;;;;;;17.20;11.10;;;;;;;5.75;100.00;61413.31;5072217;28;20438;-71
2021/12/27 04:50:51;;;;;;;17.13;11.13;;;;;;;5.75;100.00;61416.38;5072179;28;20439;-72
2021/12/27 04:53:19;;;;;;;18.50;10.93;;;;;;;5.82;100.00;61423.84;5072292;28;20455;-73
2021/12/27 04:55:49;;;;;;;16.77;9.93;;;;;;;4.76;100.00;61308.38;5071300;28;20439;-73
2021/12/27 04:58:20;;;;;;;16.70;9.00;;;;;;;6.03;100.00;61442.66;5071975;28;20472;-73
2021/12/27 05:00:48;;;;;;;13.53;8.93;;;;;;;5.88;100.00;61427.72;5071949;28;20933;-74
2021/12/27 05:03:16;;;;;;;18.27;9.77;;;;;;;5.00;100.00;61336.44;5071798;28;20439;-73
2021/12/27 05:05:47;;;;;;;19.43;9.30;;;;;;;5.86;100.00;61430.09;5071850;28;20442;-73
2021/12/27 05:08:14;;;;;;;25.43;10.83;;;;;;;5.98;100.00;61440.91;5071812;28;20442;-73
2021/12/27 05:10:41;;;;;;;14.87;8.70;;;;;;;5.09;100.00;61346.06;5071685;28;20455;-72
2021/12/27 05:13:08;;;;;;;19.80;9.37;;;;;;;6.02;100.00;61444.63;5072358;28;21027;-73
2021/12/27 05:15:35;;;;;;;14.17;8.50;;;;;;;6.03;100.00;61442.66;5072184;28;20434;-72
2021/12/27 05:18:04;;;;;;;10.60;7.10;;;;;;;6.27;100.00;61470.75;5071986;28;21006;-73
2021/12/27 05:20:31;;;;;;;11.10;7.13;;;;;;;5.30;100.00;61365.88;5072080;28;20537;-73
2021/12/27 05:22:59;;;;;;;22.63;11.90;;;;;;;6.28;100.00;61469.31;5071621;28;20434;-76
2021/12/27 05:25:27;;;;;;;14.80;7.70;;;;;;;5.74;100.00;61409.72;5072303;28;20512;-73
2021/12/27 05:27:55;;;;;;;15.37;8.33;;;;;;;6.10;100.00;61450.63;5071561;28;20500;-73
2021/12/27 05:30:22;;;;;;;14.43;8.37;;;;;;;4.61;100.00;61295.44;5071312;28;20953;-72
2021/12/27 05:32:50;;;;;;;16.23;8.50;;;;;;;6.06;100.00;61450.91;5071397;28;20478;-73
2021/12/27 05:35:19;;;;;;;22.10;9.27;;;;;;;6.10;100.00;61455.69;5071778;28;20439;-73
2021/12/27 05:37:47;;;;;;;30.23;11.70;;;;;;;6.05;100.00;61445.31;5071785;28;20446;-74
2021/12/27 05:40:20;;;;;;;24.77;13.57;;;;;;;5.96;100.00;61436.25;5071601;28;20463;-74
2021/12/27 05:42:49;;;;;;;128.87;49.47;;;;;;;5.81;100.00;61422.78;5073610;28;20430;-74
2021/12/27 05:45:17;;;;;;;78.03;33.97;;;;;;;5.79;100.00;61418.13;5075395;28;20450;-74
2021/12/27 05:47:45;;;;;;;34.00;17.23;;;;;;;5.65;100.00;61403.19;5075325;28;20446;-74
2021/12/27 05:50:14;;;;;;;29.37;14.27;;;;;;;5.79;100.00;61418.13;5074983;28;20603;-74
2021/12/27 05:52:43;;;;;;;26.37;13.60;;;;;;;5.77;100.00;61415.97;5074993;28;21024;-74
2021/12/27 05:55:12;;;;;;;28.50;14.97;;;;;;;5.06;100.00;61340.31;5073999;28;20439;-72
2021/12/27 05:57:42;;;;;;;32.53;14.87;;;;;;;5.84;100.00;61423.47;5075322;28;20446;-76
2021/12/27 06:00:15;;;;;;;28.80;14.53;;;;;;;5.87;100.00;61431.72;5075220;28;20430;-73
2021/12/27 06:02:45;;;;;;;27.50;14.90;;;;;;;4.74;100.00;61306.25;5075647;28;20812;-73
2021/12/27 06:05:15;;;;;;;31.40;15.63;;;;;;;5.86;100.00;61425.59;5075665;28;20438;-73
2021/12/27 06:07:42;;;;;;;34.93;17.17;;;;;;;5.86;100.00;61423.06;5074885;28;20475;-72
2021/12/27 06:10:12;;;;;;;47.43;22.80;;;;;;;5.84;100.00;61423.47;5074752;28;20439;-74
2021/12/27 06:12:41;;;;;;;39.23;19.53;;;;;;;5.81;100.00;61422.78;5074502;28;20482;-73
2021/12/27 06:15:10;;;;;;;22.73;12.67;;;;;;;5.58;100.00;61395.72;5074577;28;20824;-72
2021/12/27 06:17:38;;;;;;;21.90;11.87;;;;;;;4.60;100.00;61296.38;5073378;28;20442;-72
2021/12/27 06:20:11;;;;;;;20.57;11.30;;;;;;;5.25;100.00;61370.66;5074648;28;20883;-72
2021/12/27 06:22:40;;;;;;;21.50;12.37;;;;;;;5.87;100.00;61426.66;5074713;28;20503;-74
2021/12/27 06:25:12;;;;;;;23.77;11.63;;;;;;;5.78;100.00;61416.50;5074762;28;20442;-72
2021/12/27 06:27:41;;;;;;;21.40;11.60;;;;;;;5.76;100.00;61419.97;5074447;28;20431;-72
2021/12/27 06:30:12;;;;;;;20.50;11.70;;;;;;;5.83;100.00;61422.41;5074537;28;21003;-73
2021/12/27 06:32:40;;;;;;;22.70;12.00;;;;;;;4.98;100.00;61334.31;5075053;28;20567;-72
2021/12/27 06:35:11;;;;;;;29.83;13.87;;;;;;;5.84;100.00;61431.03;5074558;28;20461;-73
2021/12/27 06:37:39;;;;;;;24.03;12.13;;;;;;;5.09;100.00;61349.09;5073105;28;20577;-74
2021/12/27 06:40:08;;;;;;;24.60;15.73;;;;;;;6.31;100.00;61475.03;5074295;28;20556;-74
2021/12/27 06:42:35;;;;;;;20.50;11.83;;;;;;;5.23;100.00;61363.50;5073925;28;20508;-74
2021/12/27 06:45:06;;;;;;;14.17;9.50;;;;;;;6.52;100.00;61492.38;5074237;28;20500;-73
2021/12/27 06:47:33;;;;;;;14.40;9.37;;;;;;;6.62;100.00;61508.13;5074215;28;20435;-71
2021/12/27 06:50:00;;;;;;;20.17;11.10;;;;;;;6.55;100.00;61498.09;5074208;28;20439;-72
2021/12/27 06:52:28;;;;;;;18.27;9.27;;;;;;;5.50;100.00;61394.78;5073703;28;21034;-73
2021/12/27 06:54:55;;;;;;;19.13;11.67;;;;;;;5.23;100.00;61358.44;5074043;28;20445;-74
2021/12/27 06:57:22;;;;;;;20.50;12.93;;;;;;;6.85;100.00;61532.66;5073062;28;20862;-73
2021/12/27 06:59:49;;;;;;;23.37;13.00;;;;;;;6.92;100.00;61537.59;5073810;28;20434;-73
2021/12/27 07:02:18;;;;;;;17.20;8.40;;;;;;;7.48;100.00;61596.84;5073851;28;20512;-73
2021/12/27 07:04:48;;;;;;;16.50;7.97;;;;;;;7.84;100.00;61637.28;5073786;28;20495;-72
2021/12/27 07:07:15;;;;;;;11.90;6.73;;;;;;;8.62;100.00;61723.19;5073600;28;20439;-73
2021/12/27 07:09:43;;;;;;;14.47;8.63;;;;;;;8.97;100.00;61755.56;5073414;28;20945;-73
2021/12/27 07:12:11;;;;;;;20.63;12.20;;;;;;;9.50;100.00;61816.25;5073256;28;20535;-75
2021/12/27 07:14:47;;;;;;;18.53;10.13;;;;;;;10.03;100.00;61873.00;5073601;28;20528;-74
2021/12/27 07:17:17;;;;;;;17.73;9.87;;;;;;;10.34;100.00;61901.13;5072943;28;20446;-72
2021/12/27 07:19:45;;;;;;;16.30;9.40;;;;;;;10.12;100.00;61877.56;5073559;28;20866;-74
2021/12/27 07:22:12;;;;;;;11.63;6.73;;;;;;;9.71;100.00;61836.19;5073619;28;20442;-74
2021/12/27 07:24:40;;;;;;;14.87;7.27;;;;;;;9.36;100.00;61796.72;5073510;28;20449;-73
2021/12/27 07:27:07;;;;;;;18.03;8.40;;;;;;;9.04;100.00;61763.03;5073355;28;20423;-74
2021/12/27 07:29:35;;;;;;;18.87;8.43;;;;;;;8.71;100.00;61727.75;5072949;28;20431;-75
2021/12/27 07:32:02;;;;;;;13.93;8.17;;;;;;;8.69;100.00;61730.69;5073158;28;20927;-73
2021/12/27 07:34:34;;;;;;;15.50;10.07;;;;;;;7.43;100.00;61592.03;5073305;28;20496;-72
2021/12/27 07:37:01;;;;;;;15.93;8.30;;;;;;;7.28;100.00;61581.09;5073446;28;20466;-74
2021/12/27 07:39:28;;;;;;;16.40;9.00;;;;;;;8.50;100.00;61710.91;5073384;28;20446;-74
2021/12/27 07:41:55;;;;;;;14.90;8.07;;;;;;;8.92;100.00;61752.19;5073236;28;20453;-71
2021/12/27 07:44:25;;;;;;;15.87;8.10;;;;;;;9.08;100.00;61767.31;5073263;28;20868;-74
2021/12/27 07:46:52;;;;;;;13.77;7.50;;;;;;;9.16;100.00;61775.88;5072745;28;20443;-74
2021/12/27 07:49:21;;;;;;;9.53;5.57;;;;;;;8.97;100.00;61757.56;5074913;28;20525;-73
2021/12/27 07:51:49;;;;;;;10.87;5.60;;;;;;;8.83;100.00;61743.13;5072007;28;20533;-74
2021/12/27 07:54:16;;;;;;;12.23;4.90;;;;;;;8.75;100.00;61732.03;5072895;28;20442;-73
2021/12/27 07:56:45;;;;;;;8.83;4.63;;;;;;;8.56;100.00;61714.25;5072966;28;20439;-72
2021/12/27 07:59:12;;;;;;;11.33;5.10;;;;;;;8.47;100.00;61702.63;5072467;28;20447;-73
2021/12/27 08:01:41;;;;;;;14.60;5.03;;;;;;;8.12;100.00;61669.72;5073354;28;20446;-74
2021/12/27 08:04:14;;;;;;;10.17;5.63;;;;;;;7.53;100.00;61602.69;5072783;28;20477;-74
2021/12/27 08:06:40;;;;;;;19.43;7.20;;;;;;;8.20;100.00;61671.22;5072596;28;20435;-74
2021/12/27 08:09:09;;;;;;;11.60;5.90;;;;;;;8.49;100.00;61704.75;5072084;28;20450;-74
2021/12/27 08:11:39;;;;;;;15.07;5.30;;;;;;;7.46;100.00;61592.69;5072695;28;20431;-73
2021/12/27 08:14:08;;;;;;;6.07;3.53;;;;;;;8.51;100.00;61706.38;5072536;28;20543;-74
2021/12/27 08:16:35;;;;;;;9.73;4.73;;;;;;;7.11;100.00;61557.84;5072062;28;20458;-74
2021/12/27 08:19:02;;;;;;;7.60;4.60;;;;;;;7.47;100.00;61598.84;5072283;28;20453;-72
2021/12/27 08:21:31;;;;;;;15.93;10.53;;;;;;;8.32;100.00;61686.59;5072759;28;20434;-73
2021/12/27 08:23:59;;;;;;;10.40;6.10;;;;;;;8.33;100.00;61687.13;5071517;28;20463;-73
2021/12/27 08:26:29;;;;;;;8.60;5.03;;;;;;;7.27;100.00;61574.94;5072117;28;20442;-73
2021/12/27 08:28:57;;;;;;;11.63;6.70;;;;;;;8.32;100.00;61686.06;5072168;28;20492;-74
2021/12/27 08:31:24;;;;;;;11.63;6.13;;;;;;;6.97;100.00;61547.97;5072030;28;20491;-73
2021/12/27 08:33:52;;;;;;;8.43;5.17;;;;;;;8.43;100.00;61702.91;5071881;28;20510;-74
2021/12/27 08:36:20;;;;;;;9.13;4.50;;;;;;;8.59;100.00;61714.91;5072168;28;20690;-73
2021/12/27 08:38:49;;;;;;;10.17;5.77;;;;;;;7.20;100.00;61572.53;5071929;28;20543;-75
2021/12/27 08:41:27;;;;;;;8.57;4.83;;;;;;;8.73;100.00;61729.88;5072103;28;20454;-73
2021/12/27 08:44:03;;;;;;;7.37;4.80;;;;;;;8.73;100.00;61729.34;5071944;28;20450;-73
2021/12/27 08:46:32;;;;;;;7.63;5.20;;;;;;;7.45;100.00;61599.22;5071957;28;20530;-75
2021/12/27 08:48:59;;;;;;;7.10;4.73;;;;;;;8.94;100.00;61749.78;5071145;28;20439;-74
2021/12/27 08:51:30;;;;;;;9.53;5.13;;;;;;;9.05;100.00;61769.19;5072095;28;20491;-73
2021/12/27 08:54:03;;;;;;;6.53;4.40;;;;;;;9.08;100.00;61766.78;5071811;28;20493;-74
2021/12/27 08:56:30;;;;;;;11.37;5.43;;;;;;;9.20;100.00;61782.69;5071962;28;20492;-75
2021/12/27 08:59:01;;;;;;;10.77;7.03;;;;;;;9.23;100.00;61785.91;5071881;28;20438;-74
2021/12/27 09:01:33;;;;;;;11.97;6.30;;;;;;;9.28;100.00;61793.78;5072642;28;20497;-73
2021/12/27 09:04:00;;;;;;;9.20;5.00;;;;;;;9.27;100.00;61790.19;5072375;28;20496;-73
2021/12/27 09:06:30;;;;;;;11.23;5.63;;;;;;;9.33;100.00;61794.06;5071709;28;20442;-73
2021/12/27 09:08:58;;;;;;;8.27;5.00;;;;;;;9.45;100.00;61805.81;5071699;28;20439;-73
2021/12/27 09:11:26;;;;;;;8.50;5.17;;;;;;;9.52;100.00;61816.38;5071196;28;20451;-73
2021/12/27 09:13:55;;;;;;;14.93;7.40;;;;;;;9.48;100.00;61814.13;5071524;28;20547;-73
2021/12/27 09:16:24;;;;;;;12.77;7.13;;;;;;;9.46;100.00;61806.91;5070363;28;20976;-73
2021/12/27 09:18:51;;;;;;;10.87;5.30;;;;;;;9.51;100.00;61812.25;5071504;28;20488;-74
2021/12/27 09:21:19;;;;;;;15.87;6.13;;;;;;;9.56;100.00;61817.59;5075664;28;20512;-74
2021/12/27 09:23:46;;;;;;;11.37;5.93;;;;;;;9.76;100.00;61839.53;5075657;28;20504;-74
2021/12/27 09:26:17;;;;;;;8.00;5.53;;;;;;;10.17;100.00;61882.91;5075517;28;20443;-73
2021/12/27 09:28:44;;;;;;;10.70;6.23;;;;;;;10.28;100.00;61896.69;5076261;28;20474;-75
2021/12/27 09:31:11;;;;;;;12.33;4.40;;;;;;;10.78;100.00;61950.25;5075676;28;20446;-74
2021/12/27 09:33:41;;;;;;;6.90;3.67;;;;;;;11.12;100.00;61984.16;5075048;28;20980;-73
2021/12/27 09:36:08;;;;;;;3.97;2.07;;;;;;;10.71;100.00;61942.75;5075103;28;20634;-73
2021/12/27 09:38:36;;;;;;;4.87;1.50;;;;;;;12.22;100.00;62099.03;5075098;28;20239;-75
2021/12/27 09:41:07;;;;;;;2.20;1.73;;;;;;;12.94;100.00;62177.81;5074880;28;20219;-74
2021/12/27 09:43:38;;;;;;;5.90;1.50;;;;;;;13.17;100.00;62205.06;5075400;28;20663;-74
2021/12/27 09:46:06;;;;;;;3.30;1.50;;;;;;;13.34;100.00;62220.78;5075874;28;20203;-74
2021/12/27 09:48:34;;;;;;;2.17;1.43;;;;;;;13.50;100.00;62241.03;5076692;28;20230;-73
2021/12/27 09:51:03;;;;;;;4.03;1.13;;;;;;;12.21;100.00;62100.53;5075800;28;20259;-72
2021/12/27 09:53:30;;;;;;;1.50;1.03;;;;;;;13.57;100.00;62245.47;5074859;28;20787;-73
2021/12/27 09:55:59;;;;;;;3.47;1.50;;;;;;;13.63;100.00;62251.38;5075011;28;20196;-74
2021/12/27 09:58:28;;;;;;;1.17;0.70;;;;;;;13.63;100.00;62251.94;5076594;28;20204;-74
2021/12/27 10:00:57;;;;;;;0.90;0.87;;;;;;;13.68;100.00;62257.31;5075472;28;20577;-74
2021/12/27 10:03:24;;;;;;;4.83;1.30;;;;;;;13.76;100.00;62260.25;5075080;28;20200;-72
2021/12/27 10:05:51;;;;;;;1.20;0.93;;;;;;;13.79;100.00;62271.13;5074922;28;20257;-73
2021/12/27 10:08:20;;;;;;;2.43;1.40;;;;;;;13.82;100.00;62274.91;5073931;28;20204;-73
2021/12/27 10:10:49;;;;;;;2.93;1.07;;;;;;;12.28;100.00;62118.25;5074716;28;20679;-74
2021/12/27 10:13:16;;;;;;;1.90;1.13;;;;;;;13.41;100.00;62233.41;5074432;28;20285;-73
2021/12/27 10:15:46;;;;;;;3.90;1.40;;;;;;;13.66;100.00;62257.72;5074466;28;20200;-72
2021/12/27 10:18:16;;;;;;;1.93;1.10;;;;;;;13.66;100.00;62255.16;5074772;28;20678;-72
2021/12/27 10:20:47;;;;;;;2.50;1.03;;;;;;;13.86;100.00;62279.22;5074611;28;20281;-73
2021/12/27 10:23:18;;;;;;;1.07;0.97;;;;;;;13.68;100.00;62262.44;5074946;28;20211;-75
2021/12/27 10:25:52;;;;;;;16.13;1.30;;;;;;;13.75;100.00;62267.38;5073508;28;20286;-74
2021/12/27 10:28:26;;;;;;;1.93;1.40;;;;;;;13.86;100.00;62284.34;5074716;28;20196;-73
2021/12/27 10:31:02;;;;;;;7.40;1.73;;;;;;;13.88;100.00;62278.25;5074684;28;20283;-74
2021/12/27 10:33:33;;;;;;;2.00;1.00;;;;;;;12.97;100.00;62181.00;5074987;28;20323;-73
2021/12/27 10:36:01;;;;;;;2.07;0.80;;;;;;;13.92;100.00;62288.22;5074685;28;20235;-75
2021/12/27 10:38:32;;;;;;;2.03;1.30;;;;;;;12.68;100.00;62152.97;5074354;28;20668;-73
2021/12/27 10:41:07;;;;;;;3.37;1.10;;;;;;;13.89;100.00;62282.44;5073929;28;20323;-74
2021/12/27 10:43:45;;;;;;;3.87;1.20;;;;;;;13.88;100.00;62281.34;5073893;28;20249;-74
2021/12/27 10:46:16;;;;;;;1.50;1.20;;;;;;;13.86;100.00;62276.66;5074348;28;20289;-73
2021/12/27 10:48:45;;;;;;;3.00;1.30;;;;;;;14.06;100.00;62300.16;5074057;28;20269;-75
2021/12/27 10:51:14;;;;;;;1.97;1.10;;;;;;;14.03;100.00;62300.03;5074011;28;20663;-75
2021/12/27 10:53:46;;;;;;;8.13;1.20;;;;;;;14.08;100.00;62299.75;5073814;28;20285;-73
2021/12/27 10:56:18;;;;;;;1.70;1.10;;;;;;;13.88;100.00;62278.25;5073725;28;20207;-73
2021/12/27 10:58:49;;;;;;;3.23;1.53;;;;;;;13.55;100.00;62249.00;5072822;28;20207;-74
2021/12/27 11:01:19;;;;;;;2.13;1.40;;;;;;;14.21;100.00;62319.38;5074006;28;20567;-73
2021/12/27 11:03:49;;;;;;;2.37;0.87;;;;;;;14.05;100.00;62297.06;5074136;28;20200;-75
2021/12/27 11:06:21;;;;;;;1.10;1.00;;;;;;;14.01;100.00;62297.34;5074091;28;21119;-73
2021/12/27 11:08:51;;;;;;;3.03;1.30;;;;;;;12.97;100.00;62181.00;5073779;28;20230;-73
2021/12/27 11:11:22;;;;;;;1.40;1.03;;;;;;;14.16;100.00;62308.34;5074232;28;20267;-74
2021/12/27 11:13:55;;;;;;;4.03;1.20;;;;;;;14.14;100.00;62303.63;5073916;28;20644;-73
2021/12/27 11:16:26;;;;;;;3.37;1.23;;;;;;;14.23;100.00;62318.97;5073913;28;20196;-74
2021/12/27 11:18:58;;;;;;;2.37;0.93;;;;;;;13.41;100.00;62235.97;5073720;28;20196;-74
2021/12/27 11:21:33;;;;;;;1.60;1.03;;;;;;;13.49;100.00;62242.00;5074419;28;20333;-75
2021/12/27 11:24:02;;;;;;;4.17;1.93;;;;;;;13.99;100.00;62295.72;5073872;28;20207;-73
2021/12/27 11:26:32;;;;;;;3.43;1.20;;;;;;;13.12;100.00;62202.78;5073675;28;20208;-73
2021/12/27 11:29:14;;;;;;;2.43;1.20;;;;;;;12.92;100.00;62175.66;5073492;28;20196;-74
2021/12/27 11:31:41;;;;;;;4.00;2.00;;;;;;;14.05;100.00;62304.75;5074049;28;20270;-75